sensor_id;sensor_type;location;lat;lon;timestamp;P1;durP1;ratioP1;P2;durP2;ratioP2
22557;SDS011;11445;53.816;8.902;2023-03-26T00:01:47;19.98;;;3.03;;
22557;SDS011;11445;53.816;8.902;2023-03-26T00:04:15;22.33;;;3.95;;
22557;SDS011;11445;53.816;8.902;2023-03-26T00:06:44;27.58;;;4.97;;
22557;SDS011;11445;53.816;8.902;2023-03-26T00:09:13;19.00;;;2.97;;
22557;SDS011;11445;53.816;8.902;2023-03-26T00:11:42;26.25;;;2.90;;
22557;SDS011;11445;53.816;8.902;2023-03-26T00:14:10;23.02;;;5.30;;
22557;SDS011;11445;53.816;8.902;2023-03-26T00:16:41;24.98;;;3.30;;
22557;SDS011;11445;53.816;8.902;2023-03-26T00:19:10;18.98;;;3.33;;
22557;SDS011;11445;53.816;8.902;2023-03-26T00:21:38;27.30;;;3.33;;
22557;SDS011;11445;53.816;8.902;2023-03-26T00:24:06;17.27;;;3.28;;
22557;SDS011;11445;53.816;8.902;2023-03-26T00:26:35;26.88;;;4.05;;
22557;SDS011;11445;53.816;8.902;2023-03-26T00:29:06;29.15;;;3.80;;
22557;SDS011;11445;53.816;8.902;2023-03-26T00:31:34;30.27;;;2.90;;
22557;SDS011;11445;53.816;8.902;2023-03-26T00:34:03;21.40;;;3.92;;
22557;SDS011;11445;53.816;8.902;2023-03-26T00:36:31;25.23;;;2.92;;
22557;SDS011;11445;53.816;8.902;2023-03-26T00:38:59;20.17;;;3.35;;
22557;SDS011;11445;53.816;8.902;2023-03-26T00:41:29;16.50;;;2.72;;
22557;SDS011;11445;53.816;8.902;2023-03-26T00:44:01;20.55;;;3.58;;
22557;SDS011;11445;53.816;8.902;2023-03-26T00:46:29;12.45;;;2.65;;
22557;SDS011;11445;53.816;8.902;2023-03-26T00:48:57;20.20;;;2.70;;
22557;SDS011;11445;53.816;8.902;2023-03-26T00:51:26;11.85;;;2.28;;
22557;SDS011;11445;53.816;8.902;2023-03-26T00:53:54;15.30;;;2.63;;
22557;SDS011;11445;53.816;8.902;2023-03-26T00:56:22;15.90;;;2.55;;
22557;SDS011;11445;53.816;8.902;2023-03-26T00:58:49;20.75;;;2.63;;
22557;SDS011;11445;53.816;8.902;2023-03-26T01:01:17;19.92;;;2.67;;
22557;SDS011;11445;53.816;8.902;2023-03-26T01:03:52;16.80;;;2.22;;
22557;SDS011;11445;53.816;8.902;2023-03-26T01:06:23;22.27;;;2.92;;
22557;SDS011;11445;53.816;8.902;2023-03-26T01:08:57;8.27;;;2.25;;
22557;SDS011;11445;53.816;8.902;2023-03-26T01:11:28;14.93;;;2.20;;
22557;SDS011;11445;53.816;8.902;2023-03-26T01:13:58;19.23;;;2.38;;
22557;SDS011;11445;53.816;8.902;2023-03-26T01:16:28;10.43;;;2.30;;
22557;SDS011;11445;53.816;8.902;2023-03-26T01:19:02;12.57;;;2.22;;
22557;SDS011;11445;53.816;8.902;2023-03-26T01:21:34;10.30;;;2.03;;
22557;SDS011;11445;53.816;8.902;2023-03-26T01:24:04;5.10;;;1.88;;
22557;SDS011;11445;53.816;8.902;2023-03-26T01:26:39;14.20;;;2.17;;
22557;SDS011;11445;53.816;8.902;2023-03-26T01:29:20;18.45;;;2.70;;
22557;SDS011;11445;53.816;8.902;2023-03-26T01:32:01;13.02;;;2.15;;
22557;SDS011;11445;53.816;8.902;2023-03-26T01:34:38;11.75;;;2.13;;
22557;SDS011;11445;53.816;8.902;2023-03-26T01:37:15;6.72;;;1.90;;
22557;SDS011;11445;53.816;8.902;2023-03-26T01:39:52;8.90;;;2.08;;
22557;SDS011;11445;53.816;8.902;2023-03-26T01:42:24;11.57;;;2.08;;
22557;SDS011;11445;53.816;8.902;2023-03-26T01:44:58;8.15;;;1.75;;
22557;SDS011;11445;53.816;8.902;2023-03-26T01:47:32;12.00;;;2.03;;
22557;SDS011;11445;53.816;8.902;2023-03-26T01:50:00;12.65;;;1.90;;
22557;SDS011;11445;53.816;8.902;2023-03-26T01:52:27;9.13;;;1.80;;
22557;SDS011;11445;53.816;8.902;2023-03-26T01:54:57;13.68;;;1.80;;
22557;SDS011;11445;53.816;8.902;2023-03-26T01:57:28;8.30;;;1.80;;
22557;SDS011;11445;53.816;8.902;2023-03-26T02:00:05;11.48;;;1.95;;
22557;SDS011;11445;53.816;8.902;2023-03-26T02:02:41;15.55;;;1.75;;
22557;SDS011;11445;53.816;8.902;2023-03-26T02:05:16;11.07;;;2.38;;
22557;SDS011;11445;53.816;8.902;2023-03-26T02:07:50;7.20;;;1.98;;
22557;SDS011;11445;53.816;8.902;2023-03-26T02:10:23;13.75;;;2.45;;
22557;SDS011;11445;53.816;8.902;2023-03-26T02:12:51;13.68;;;2.20;;
22557;SDS011;11445;53.816;8.902;2023-03-26T02:15:19;15.75;;;1.85;;
22557;SDS011;11445;53.816;8.902;2023-03-26T02:17:46;7.38;;;1.70;;
22557;SDS011;11445;53.816;8.902;2023-03-26T02:20:13;12.43;;;1.80;;
22557;SDS011;11445;53.816;8.902;2023-03-26T02:22:43;9.18;;;2.20;;
22557;SDS011;11445;53.816;8.902;2023-03-26T02:25:12;12.30;;;2.15;;
22557;SDS011;11445;53.816;8.902;2023-03-26T02:27:42;11.35;;;2.00;;
22557;SDS011;11445;53.816;8.902;2023-03-26T02:30:12;12.20;;;2.03;;
22557;SDS011;11445;53.816;8.902;2023-03-26T02:32:42;10.73;;;2.60;;
22557;SDS011;11445;53.816;8.902;2023-03-26T02:35:09;17.20;;;2.80;;
22557;SDS011;11445;53.816;8.902;2023-03-26T02:37:37;10.80;;;2.00;;
22557;SDS011;11445;53.816;8.902;2023-03-26T02:40:06;9.23;;;1.98;;
22557;SDS011;11445;53.816;8.902;2023-03-26T02:42:36;14.32;;;2.55;;
22557;SDS011;11445;53.816;8.902;2023-03-26T02:45:06;15.30;;;2.20;;
22557;SDS011;11445;53.816;8.902;2023-03-26T02:47:33;13.85;;;2.67;;
22557;SDS011;11445;53.816;8.902;2023-03-26T02:50:00;14.60;;;2.40;;
22557;SDS011;11445;53.816;8.902;2023-03-26T02:52:28;22.20;;;3.25;;
22557;SDS011;11445;53.816;8.902;2023-03-26T02:54:55;16.55;;;2.58;;
22557;SDS011;11445;53.816;8.902;2023-03-26T02:57:22;14.98;;;2.10;;
22557;SDS011;11445;53.816;8.902;2023-03-26T02:59:50;6.03;;;1.75;;
22557;SDS011;11445;53.816;8.902;2023-03-26T03:02:19;11.65;;;1.92;;
22557;SDS011;11445;53.816;8.902;2023-03-26T03:04:48;15.73;;;2.03;;
22557;SDS011;11445;53.816;8.902;2023-03-26T03:07:15;14.02;;;2.33;;
22557;SDS011;11445;53.816;8.902;2023-03-26T03:09:42;4.88;;;1.45;;
22557;SDS011;11445;53.816;8.902;2023-03-26T03:12:09;8.35;;;1.52;;
22557;SDS011;11445;53.816;8.902;2023-03-26T03:14:36;14.75;;;1.90;;
22557;SDS011;11445;53.816;8.902;2023-03-26T03:17:04;8.15;;;1.80;;
22557;SDS011;11445;53.816;8.902;2023-03-26T03:19:33;9.23;;;1.60;;
22557;SDS011;11445;53.816;8.902;2023-03-26T03:22:01;5.47;;;1.10;;
22557;SDS011;11445;53.816;8.902;2023-03-26T03:24:28;8.77;;;1.70;;
22557;SDS011;11445;53.816;8.902;2023-03-26T03:26:58;6.80;;;1.33;;
22557;SDS011;11445;53.816;8.902;2023-03-26T03:29:25;11.35;;;1.25;;
22557;SDS011;11445;53.816;8.902;2023-03-26T03:31:52;14.57;;;1.73;;
22557;SDS011;11445;53.816;8.902;2023-03-26T03:34:19;5.45;;;1.48;;
22557;SDS011;11445;53.816;8.902;2023-03-26T03:36:48;6.45;;;1.40;;
22557;SDS011;11445;53.816;8.902;2023-03-26T03:39:16;8.43;;;2.15;;
22557;SDS011;11445;53.816;8.902;2023-03-26T03:41:43;10.93;;;1.30;;
22557;SDS011;11445;53.816;8.902;2023-03-26T03:44:10;8.52;;;1.88;;
22557;SDS011;11445;53.816;8.902;2023-03-26T03:46:37;19.65;;;1.77;;
22557;SDS011;11445;53.816;8.902;2023-03-26T03:49:04;12.15;;;1.80;;
22557;SDS011;11445;53.816;8.902;2023-03-26T03:51:31;5.63;;;1.38;;
22557;SDS011;11445;53.816;8.902;2023-03-26T03:54:00;10.02;;;1.42;;
22557;SDS011;11445;53.816;8.902;2023-03-26T03:56:28;9.23;;;1.73;;
22557;SDS011;11445;53.816;8.902;2023-03-26T03:58:55;7.93;;;1.45;;
22557;SDS011;11445;53.816;8.902;2023-03-26T04:01:23;11.55;;;2.38;;
22557;SDS011;11445;53.816;8.902;2023-03-26T04:03:50;9.75;;;1.45;;
22557;SDS011;11445;53.816;8.902;2023-03-26T04:06:17;17.00;;;2.30;;
22557;SDS011;11445;53.816;8.902;2023-03-26T04:08:44;12.57;;;2.05;;
22557;SDS011;11445;53.816;8.902;2023-03-26T04:11:13;10.30;;;2.13;;
22557;SDS011;11445;53.816;8.902;2023-03-26T04:13:40;16.10;;;2.83;;
22557;SDS011;11445;53.816;8.902;2023-03-26T04:16:08;12.38;;;1.90;;
22557;SDS011;11445;53.816;8.902;2023-03-26T04:18:35;12.25;;;2.08;;
22557;SDS011;11445;53.816;8.902;2023-03-26T04:21:03;12.27;;;3.00;;
22557;SDS011;11445;53.816;8.902;2023-03-26T04:23:31;13.48;;;2.40;;
22557;SDS011;11445;53.816;8.902;2023-03-26T04:26:00;16.20;;;2.03;;
22557;SDS011;11445;53.816;8.902;2023-03-26T04:28:31;16.48;;;1.70;;
22557;SDS011;11445;53.816;8.902;2023-03-26T04:31:00;13.30;;;2.45;;
22557;SDS011;11445;53.816;8.902;2023-03-26T04:33:29;10.15;;;2.70;;
22557;SDS011;11445;53.816;8.902;2023-03-26T04:35:58;22.90;;;2.65;;
22557;SDS011;11445;53.816;8.902;2023-03-26T04:38:27;12.65;;;1.90;;
22557;SDS011;11445;53.816;8.902;2023-03-26T04:40:57;12.13;;;2.83;;
22557;SDS011;11445;53.816;8.902;2023-03-26T04:43:25;16.40;;;2.13;;
22557;SDS011;11445;53.816;8.902;2023-03-26T04:45:55;11.60;;;2.40;;
22557;SDS011;11445;53.816;8.902;2023-03-26T04:48:26;16.85;;;2.00;;
22557;SDS011;11445;53.816;8.902;2023-03-26T04:50:54;8.82;;;1.80;;
22557;SDS011;11445;53.816;8.902;2023-03-26T04:53:22;10.93;;;2.63;;
22557;SDS011;11445;53.816;8.902;2023-03-26T04:55:50;12.88;;;2.50;;
22557;SDS011;11445;53.816;8.902;2023-03-26T04:58:21;9.45;;;1.90;;
22557;SDS011;11445;53.816;8.902;2023-03-26T05:00:58;9.82;;;2.13;;
22557;SDS011;11445;53.816;8.902;2023-03-26T05:03:26;9.05;;;1.85;;
22557;SDS011;11445;53.816;8.902;2023-03-26T05:05:55;13.68;;;2.25;;
22557;SDS011;11445;53.816;8.902;2023-03-26T05:08:23;15.80;;;1.98;;
22557;SDS011;11445;53.816;8.902;2023-03-26T05:10:53;12.38;;;2.63;;
22557;SDS011;11445;53.816;8.902;2023-03-26T05:13:21;19.98;;;2.67;;
22557;SDS011;11445;53.816;8.902;2023-03-26T05:15:48;20.38;;;3.10;;
22557;SDS011;11445;53.816;8.902;2023-03-26T05:18:18;19.42;;;2.53;;
22557;SDS011;11445;53.816;8.902;2023-03-26T05:20:45;17.42;;;2.05;;
22557;SDS011;11445;53.816;8.902;2023-03-26T05:23:12;18.67;;;2.50;;
22557;SDS011;11445;53.816;8.902;2023-03-26T05:25:39;18.77;;;3.28;;
22557;SDS011;11445;53.816;8.902;2023-03-26T05:28:06;23.48;;;3.53;;
22557;SDS011;11445;53.816;8.902;2023-03-26T05:30:34;25.60;;;3.05;;
22557;SDS011;11445;53.816;8.902;2023-03-26T05:33:01;22.33;;;3.00;;
22557;SDS011;11445;53.816;8.902;2023-03-26T05:35:30;28.67;;;2.75;;
22557;SDS011;11445;53.816;8.902;2023-03-26T05:37:57;19.38;;;3.10;;
22557;SDS011;11445;53.816;8.902;2023-03-26T05:40:24;19.58;;;3.00;;
22557;SDS011;11445;53.816;8.902;2023-03-26T05:42:51;22.67;;;2.92;;
22557;SDS011;11445;53.816;8.902;2023-03-26T05:45:18;14.75;;;2.85;;
22557;SDS011;11445;53.816;8.902;2023-03-26T05:47:46;18.70;;;3.22;;
22557;SDS011;11445;53.816;8.902;2023-03-26T05:50:13;14.52;;;3.97;;
22557;SDS011;11445;53.816;8.902;2023-03-26T05:52:42;24.17;;;3.65;;
22557;SDS011;11445;53.816;8.902;2023-03-26T05:55:09;28.45;;;3.72;;
22557;SDS011;11445;53.816;8.902;2023-03-26T05:57:37;25.42;;;3.47;;
22557;SDS011;11445;53.816;8.902;2023-03-26T06:00:04;24.02;;;3.72;;
22557;SDS011;11445;53.816;8.902;2023-03-26T06:02:35;24.17;;;3.28;;
22557;SDS011;11445;53.816;8.902;2023-03-26T06:05:02;29.42;;;3.60;;
22557;SDS011;11445;53.816;8.902;2023-03-26T06:07:29;23.27;;;2.72;;
22557;SDS011;11445;53.816;8.902;2023-03-26T06:09:59;31.25;;;3.78;;
22557;SDS011;11445;53.816;8.902;2023-03-26T06:12:26;24.80;;;2.67;;
22557;SDS011;11445;53.816;8.902;2023-03-26T06:14:53;18.95;;;2.90;;
22557;SDS011;11445;53.816;8.902;2023-03-26T06:17:20;17.10;;;2.60;;
22557;SDS011;11445;53.816;8.902;2023-03-26T06:19:47;17.33;;;2.65;;
22557;SDS011;11445;53.816;8.902;2023-03-26T06:22:14;17.83;;;3.47;;
22557;SDS011;11445;53.816;8.902;2023-03-26T06:24:41;13.32;;;2.90;;
22557;SDS011;11445;53.816;8.902;2023-03-26T06:27:10;19.23;;;2.47;;
22557;SDS011;11445;53.816;8.902;2023-03-26T06:29:37;14.73;;;2.50;;
22557;SDS011;11445;53.816;8.902;2023-03-26T06:32:04;13.52;;;2.80;;
22557;SDS011;11445;53.816;8.902;2023-03-26T06:34:31;22.58;;;2.75;;
22557;SDS011;11445;53.816;8.902;2023-03-26T06:36:58;20.92;;;2.95;;
22557;SDS011;11445;53.816;8.902;2023-03-26T06:39:25;26.23;;;4.65;;
22557;SDS011;11445;53.816;8.902;2023-03-26T06:41:52;12.25;;;3.63;;
22557;SDS011;11445;53.816;8.902;2023-03-26T06:44:20;18.23;;;2.90;;
22557;SDS011;11445;53.816;8.902;2023-03-26T06:46:47;21.25;;;3.03;;
22557;SDS011;11445;53.816;8.902;2023-03-26T06:49:15;14.52;;;3.20;;
22557;SDS011;11445;53.816;8.902;2023-03-26T06:51:42;25.80;;;3.53;;
22557;SDS011;11445;53.816;8.902;2023-03-26T06:54:10;16.60;;;2.53;;
22557;SDS011;11445;53.816;8.902;2023-03-26T06:56:37;21.90;;;2.70;;
22557;SDS011;11445;53.816;8.902;2023-03-26T06:59:04;23.05;;;3.08;;
22557;SDS011;11445;53.816;8.902;2023-03-26T07:01:33;15.73;;;3.20;;
22557;SDS011;11445;53.816;8.902;2023-03-26T07:04:00;22.77;;;3.55;;
22557;SDS011;11445;53.816;8.902;2023-03-26T07:06:27;18.88;;;3.10;;
22557;SDS011;11445;53.816;8.902;2023-03-26T07:08:54;17.20;;;2.75;;
22557;SDS011;11445;53.816;8.902;2023-03-26T07:11:22;15.20;;;3.25;;
22557;SDS011;11445;53.816;8.902;2023-03-26T07:13:51;17.38;;;2.70;;
22557;SDS011;11445;53.816;8.902;2023-03-26T07:16:20;23.58;;;3.33;;
22557;SDS011;11445;53.816;8.902;2023-03-26T07:18:49;18.08;;;3.60;;
22557;SDS011;11445;53.816;8.902;2023-03-26T07:21:16;16.08;;;3.20;;
22557;SDS011;11445;53.816;8.902;2023-03-26T07:23:44;13.77;;;2.72;;
22557;SDS011;11445;53.816;8.902;2023-03-26T07:26:13;22.05;;;3.33;;
22557;SDS011;11445;53.816;8.902;2023-03-26T07:28:51;19.45;;;2.88;;
22557;SDS011;11445;53.816;8.902;2023-03-26T07:31:26;14.20;;;2.42;;
22557;SDS011;11445;53.816;8.902;2023-03-26T07:34:02;16.02;;;2.58;;
22557;SDS011;11445;53.816;8.902;2023-03-26T07:36:38;14.60;;;2.45;;
22557;SDS011;11445;53.816;8.902;2023-03-26T07:39:17;25.38;;;2.70;;
22557;SDS011;11445;53.816;8.902;2023-03-26T07:41:54;14.52;;;3.17;;
22557;SDS011;11445;53.816;8.902;2023-03-26T07:44:35;25.95;;;3.53;;
22557;SDS011;11445;53.816;8.902;2023-03-26T07:47:16;11.27;;;3.13;;
22557;SDS011;11445;53.816;8.902;2023-03-26T07:49:52;14.85;;;2.40;;
22557;SDS011;11445;53.816;8.902;2023-03-26T07:52:20;22.13;;;3.05;;
22557;SDS011;11445;53.816;8.902;2023-03-26T07:54:47;15.85;;;2.90;;
22557;SDS011;11445;53.816;8.902;2023-03-26T07:57:16;19.38;;;2.63;;
22557;SDS011;11445;53.816;8.902;2023-03-26T07:59:56;22.08;;;2.33;;
22557;SDS011;11445;53.816;8.902;2023-03-26T08:05:25;13.98;;;2.40;;
22557;SDS011;11445;53.816;8.902;2023-03-26T08:07:59;13.95;;;2.90;;
22557;SDS011;11445;53.816;8.902;2023-03-26T08:10:34;17.13;;;3.55;;
22557;SDS011;11445;53.816;8.902;2023-03-26T08:13:11;20.42;;;3.90;;
22557;SDS011;11445;53.816;8.902;2023-03-26T08:15:45;15.55;;;2.72;;
22557;SDS011;11445;53.816;8.902;2023-03-26T08:18:26;16.67;;;2.40;;
22557;SDS011;11445;53.816;8.902;2023-03-26T08:21:07;18.50;;;2.28;;
22557;SDS011;11445;53.816;8.902;2023-03-26T08:23:39;20.23;;;3.13;;
22557;SDS011;11445;53.816;8.902;2023-03-26T08:26:14;12.25;;;2.10;;
22557;SDS011;11445;53.816;8.902;2023-03-26T08:28:52;17.30;;;2.60;;
22557;SDS011;11445;53.816;8.902;2023-03-26T08:31:29;21.05;;;2.35;;
22557;SDS011;11445;53.816;8.902;2023-03-26T08:33:59;10.27;;;2.22;;
22557;SDS011;11445;53.816;8.902;2023-03-26T08:36:27;17.10;;;3.15;;
22557;SDS011;11445;53.816;8.902;2023-03-26T08:38:55;12.70;;;2.55;;
22557;SDS011;11445;53.816;8.902;2023-03-26T08:41:36;12.85;;;1.95;;
22557;SDS011;11445;53.816;8.902;2023-03-26T08:47:44;12.57;;;2.25;;
22557;SDS011;11445;53.816;8.902;2023-03-26T08:57:02;19.02;;;2.67;;
22557;SDS011;11445;53.816;8.902;2023-03-26T08:59:59;20.08;;;3.33;;
22557;SDS011;11445;53.816;8.902;2023-03-26T09:02:58;21.35;;;2.80;;
22557;SDS011;11445;53.816;8.902;2023-03-26T09:05:44;14.57;;;3.15;;
22557;SDS011;11445;53.816;8.902;2023-03-26T09:08:46;18.98;;;2.47;;
22557;SDS011;11445;53.816;8.902;2023-03-26T09:14:57;18.02;;;2.53;;
22557;SDS011;11445;53.816;8.902;2023-03-26T09:18:02;19.25;;;2.53;;
22557;SDS011;11445;53.816;8.902;2023-03-26T09:21:21;16.17;;;2.30;;
22557;SDS011;11445;53.816;8.902;2023-03-26T09:27:33;18.77;;;3.38;;
22557;SDS011;11445;53.816;8.902;2023-03-26T09:33:31;23.25;;;2.70;;
22557;SDS011;11445;53.816;8.902;2023-03-26T09:36:24;18.73;;;2.67;;
22557;SDS011;11445;53.816;8.902;2023-03-26T09:39:15;10.15;;;1.95;;
22557;SDS011;11445;53.816;8.902;2023-03-26T09:41:51;12.38;;;1.73;;
22557;SDS011;11445;53.816;8.902;2023-03-26T09:47:38;21.60;;;2.80;;
22557;SDS011;11445;53.816;8.902;2023-03-26T09:50:20;11.88;;;2.25;;
22557;SDS011;11445;53.816;8.902;2023-03-26T09:52:59;9.52;;;2.65;;
22557;SDS011;11445;53.816;8.902;2023-03-26T09:55:48;10.65;;;2.00;;
22557;SDS011;11445;53.816;8.902;2023-03-26T10:01:23;14.88;;;2.45;;
22557;SDS011;11445;53.816;8.902;2023-03-26T10:04:09;18.63;;;2.80;;
22557;SDS011;11445;53.816;8.902;2023-03-26T10:06:59;20.00;;;2.63;;
22557;SDS011;11445;53.816;8.902;2023-03-26T10:09:35;15.00;;;2.10;;
22557;SDS011;11445;53.816;8.902;2023-03-26T10:12:17;18.45;;;2.75;;
22557;SDS011;11445;53.816;8.902;2023-03-26T10:14:52;23.88;;;3.17;;
22557;SDS011;11445;53.816;8.902;2023-03-26T10:17:33;16.48;;;1.85;;
22557;SDS011;11445;53.816;8.902;2023-03-26T10:20:16;11.80;;;2.63;;
22557;SDS011;11445;53.816;8.902;2023-03-26T10:23:01;13.90;;;2.20;;
22557;SDS011;11445;53.816;8.902;2023-03-26T10:25:57;14.93;;;2.40;;
22557;SDS011;11445;53.816;8.902;2023-03-26T10:28:54;14.02;;;2.38;;
22557;SDS011;11445;53.816;8.902;2023-03-26T10:31:36;28.58;;;2.63;;
22557;SDS011;11445;53.816;8.902;2023-03-26T10:34:10;19.83;;;2.10;;
22557;SDS011;11445;53.816;8.902;2023-03-26T10:37:02;14.10;;;1.85;;
22557;SDS011;11445;53.816;8.902;2023-03-26T10:39:39;12.05;;;2.38;;
22557;SDS011;11445;53.816;8.902;2023-03-26T10:42:40;11.73;;;1.83;;
22557;SDS011;11445;53.816;8.902;2023-03-26T10:45:30;13.20;;;2.40;;
22557;SDS011;11445;53.816;8.902;2023-03-26T10:48:16;19.85;;;3.47;;
22557;SDS011;11445;53.816;8.902;2023-03-26T10:51:06;15.77;;;1.65;;
22557;SDS011;11445;53.816;8.902;2023-03-26T10:53:53;13.57;;;2.55;;
22557;SDS011;11445;53.816;8.902;2023-03-26T10:56:26;18.10;;;2.80;;
22557;SDS011;11445;53.816;8.902;2023-03-26T10:58:57;13.90;;;1.92;;
22557;SDS011;11445;53.816;8.902;2023-03-26T11:01:32;11.85;;;1.63;;
22557;SDS011;11445;53.816;8.902;2023-03-26T11:04:07;15.57;;;2.28;;
22557;SDS011;11445;53.816;8.902;2023-03-26T11:06:46;13.10;;;2.20;;
22557;SDS011;11445;53.816;8.902;2023-03-26T11:09:24;14.68;;;2.03;;
22557;SDS011;11445;53.816;8.902;2023-03-26T11:12:01;9.02;;;2.10;;
22557;SDS011;11445;53.816;8.902;2023-03-26T11:14:35;19.77;;;2.38;;
22557;SDS011;11445;53.816;8.902;2023-03-26T11:17:10;12.70;;;2.05;;
22557;SDS011;11445;53.816;8.902;2023-03-26T11:19:45;9.75;;;1.98;;
22557;SDS011;11445;53.816;8.902;2023-03-26T11:22:20;18.70;;;2.45;;
22557;SDS011;11445;53.816;8.902;2023-03-26T11:25:00;18.15;;;2.45;;
22557;SDS011;11445;53.816;8.902;2023-03-26T11:27:45;14.35;;;2.20;;
22557;SDS011;11445;53.816;8.902;2023-03-26T11:30:22;14.93;;;1.67;;
22557;SDS011;11445;53.816;8.902;2023-03-26T11:32:59;15.48;;;2.22;;
22557;SDS011;11445;53.816;8.902;2023-03-26T11:35:28;18.75;;;2.45;;
22557;SDS011;11445;53.816;8.902;2023-03-26T11:38:00;13.45;;;1.83;;
22557;SDS011;11445;53.816;8.902;2023-03-26T11:40:31;14.57;;;2.10;;
22557;SDS011;11445;53.816;8.902;2023-03-26T11:43:04;10.57;;;2.50;;
22557;SDS011;11445;53.816;8.902;2023-03-26T11:45:34;16.45;;;2.35;;
22557;SDS011;11445;53.816;8.902;2023-03-26T11:48:05;12.05;;;2.17;;
22557;SDS011;11445;53.816;8.902;2023-03-26T11:50:37;13.43;;;2.50;;
22557;SDS011;11445;53.816;8.902;2023-03-26T11:53:11;10.43;;;2.17;;
22557;SDS011;11445;53.816;8.902;2023-03-26T11:55:41;11.43;;;2.35;;
22557;SDS011;11445;53.816;8.902;2023-03-26T11:58:20;10.75;;;2.15;;
22557;SDS011;11445;53.816;8.902;2023-03-26T12:00:52;27.00;;;3.17;;
22557;SDS011;11445;53.816;8.902;2023-03-26T12:03:20;14.10;;;2.22;;
22557;SDS011;11445;53.816;8.902;2023-03-26T12:05:49;15.43;;;2.30;;
22557;SDS011;11445;53.816;8.902;2023-03-26T12:08:20;12.13;;;1.90;;
22557;SDS011;11445;53.816;8.902;2023-03-26T12:11:01;15.73;;;3.72;;
22557;SDS011;11445;53.816;8.902;2023-03-26T12:13:36;15.02;;;2.00;;
22557;SDS011;11445;53.816;8.902;2023-03-26T12:16:09;23.02;;;2.55;;
22557;SDS011;11445;53.816;8.902;2023-03-26T12:18:39;14.75;;;2.38;;
22557;SDS011;11445;53.816;8.902;2023-03-26T12:21:09;20.52;;;2.95;;
22557;SDS011;11445;53.816;8.902;2023-03-26T12:23:50;19.60;;;3.22;;
22557;SDS011;11445;53.816;8.902;2023-03-26T12:26:34;17.88;;;3.72;;
22557;SDS011;11445;53.816;8.902;2023-03-26T12:29:06;15.60;;;2.08;;
22557;SDS011;11445;53.816;8.902;2023-03-26T12:31:47;12.57;;;2.15;;
22557;SDS011;11445;53.816;8.902;2023-03-26T12:34:20;13.18;;;2.35;;
22557;SDS011;11445;53.816;8.902;2023-03-26T12:36:52;18.85;;;3.08;;
22557;SDS011;11445;53.816;8.902;2023-03-26T12:39:25;14.30;;;2.40;;
22557;SDS011;11445;53.816;8.902;2023-03-26T12:41:55;16.50;;;2.45;;
22557;SDS011;11445;53.816;8.902;2023-03-26T12:44:27;11.15;;;2.22;;
22557;SDS011;11445;53.816;8.902;2023-03-26T12:49:43;23.05;;;2.50;;
22557;SDS011;11445;53.816;8.902;2023-03-26T12:55:17;15.50;;;2.63;;
22557;SDS011;11445;53.816;8.902;2023-03-26T12:58:01;12.65;;;2.10;;
22557;SDS011;11445;53.816;8.902;2023-03-26T13:00:43;14.32;;;2.35;;
22557;SDS011;11445;53.816;8.902;2023-03-26T13:03:26;17.85;;;2.30;;
22557;SDS011;11445;53.816;8.902;2023-03-26T13:06:16;17.75;;;2.38;;
22557;SDS011;11445;53.816;8.902;2023-03-26T13:11:54;11.57;;;2.30;;
22557;SDS011;11445;53.816;8.902;2023-03-26T13:14:33;14.27;;;3.05;;
22557;SDS011;11445;53.816;8.902;2023-03-26T13:17:14;23.98;;;3.22;;
22557;SDS011;11445;53.816;8.902;2023-03-26T13:19:49;15.82;;;2.35;;
22557;SDS011;11445;53.816;8.902;2023-03-26T13:22:23;10.55;;;2.38;;
22557;SDS011;11445;53.816;8.902;2023-03-26T13:24:58;14.82;;;2.70;;
22557;SDS011;11445;53.816;8.902;2023-03-26T13:27:34;17.67;;;2.90;;
22557;SDS011;11445;53.816;8.902;2023-03-26T13:30:14;13.60;;;2.33;;
22557;SDS011;11445;53.816;8.902;2023-03-26T13:32:53;12.05;;;2.42;;
22557;SDS011;11445;53.816;8.902;2023-03-26T13:35:35;15.70;;;2.55;;
22557;SDS011;11445;53.816;8.902;2023-03-26T13:38:07;10.20;;;2.38;;
22557;SDS011;11445;53.816;8.902;2023-03-26T13:40:42;19.38;;;2.63;;
22557;SDS011;11445;53.816;8.902;2023-03-26T13:43:23;9.48;;;2.35;;
22557;SDS011;11445;53.816;8.902;2023-03-26T13:46:05;13.70;;;2.33;;
22557;SDS011;11445;53.816;8.902;2023-03-26T13:48:42;16.00;;;2.65;;
22557;SDS011;11445;53.816;8.902;2023-03-26T13:51:16;16.85;;;2.38;;
22557;SDS011;11445;53.816;8.902;2023-03-26T13:53:49;15.55;;;2.55;;
22557;SDS011;11445;53.816;8.902;2023-03-26T13:56:20;23.73;;;4.00;;
22557;SDS011;11445;53.816;8.902;2023-03-26T13:58:52;10.57;;;2.03;;
22557;SDS011;11445;53.816;8.902;2023-03-26T14:01:26;14.30;;;2.03;;
22557;SDS011;11445;53.816;8.902;2023-03-26T14:04:01;13.68;;;1.90;;
22557;SDS011;11445;53.816;8.902;2023-03-26T14:06:39;15.82;;;2.78;;
22557;SDS011;11445;53.816;8.902;2023-03-26T14:09:11;11.15;;;1.60;;
22557;SDS011;11445;53.816;8.902;2023-03-26T14:11:46;27.13;;;2.97;;
22557;SDS011;11445;53.816;8.902;2023-03-26T14:14:24;15.60;;;1.80;;
22557;SDS011;11445;53.816;8.902;2023-03-26T14:17:00;9.60;;;2.17;;
22557;SDS011;11445;53.816;8.902;2023-03-26T14:22:40;17.13;;;1.70;;
22557;SDS011;11445;53.816;8.902;2023-03-26T14:25:24;13.23;;;2.53;;
22557;SDS011;11445;53.816;8.902;2023-03-26T14:28:09;8.40;;;1.80;;
22557;SDS011;11445;53.816;8.902;2023-03-26T14:33:51;8.13;;;1.73;;
22557;SDS011;11445;53.816;8.902;2023-03-26T14:36:42;13.05;;;1.30;;
22557;SDS011;11445;53.816;8.902;2023-03-26T14:39:38;15.35;;;1.83;;
22557;SDS011;11445;53.816;8.902;2023-03-26T14:42:23;13.75;;;1.77;;
22557;SDS011;11445;53.816;8.902;2023-03-26T14:45:02;7.22;;;1.55;;
22557;SDS011;11445;53.816;8.902;2023-03-26T14:47:48;13.60;;;1.70;;
22557;SDS011;11445;53.816;8.902;2023-03-26T14:53:25;7.85;;;1.60;;
22557;SDS011;11445;53.816;8.902;2023-03-26T14:59:06;13.23;;;1.92;;
22557;SDS011;11445;53.816;8.902;2023-03-26T15:02:06;14.88;;;2.35;;
22557;SDS011;11445;53.816;8.902;2023-03-26T15:11:22;8.80;;;1.73;;
22557;SDS011;11445;53.816;8.902;2023-03-26T15:19:50;4.15;;;1.38;;
22557;SDS011;11445;53.816;8.902;2023-03-26T15:22:47;3.90;;;1.17;;
22557;SDS011;11445;53.816;8.902;2023-03-26T15:28:58;8.00;;;1.65;;
22557;SDS011;11445;53.816;8.902;2023-03-26T15:31:37;6.20;;;0.93;;
22557;SDS011;11445;53.816;8.902;2023-03-26T15:34:28;12.65;;;1.40;;
22557;SDS011;11445;53.816;8.902;2023-03-26T15:37:23;7.45;;;1.33;;
22557;SDS011;11445;53.816;8.902;2023-03-26T15:40:16;7.53;;;1.30;;
22557;SDS011;11445;53.816;8.902;2023-03-26T15:42:52;5.80;;;1.48;;
22557;SDS011;11445;53.816;8.902;2023-03-26T15:45:34;7.32;;;1.23;;
22557;SDS011;11445;53.816;8.902;2023-03-26T15:48:10;14.38;;;1.48;;
22557;SDS011;11445;53.816;8.902;2023-03-26T15:51:06;7.47;;;1.60;;
22557;SDS011;11445;53.816;8.902;2023-03-26T15:53:52;11.07;;;1.50;;
22557;SDS011;11445;53.816;8.902;2023-03-26T15:56:29;12.00;;;1.20;;
22557;SDS011;11445;53.816;8.902;2023-03-26T15:59:16;9.25;;;1.20;;
22557;SDS011;11445;53.816;8.902;2023-03-26T16:01:58;8.13;;;1.35;;
22557;SDS011;11445;53.816;8.902;2023-03-26T16:04:38;9.32;;;1.30;;
22557;SDS011;11445;53.816;8.902;2023-03-26T16:07:13;5.18;;;1.60;;
22557;SDS011;11445;53.816;8.902;2023-03-26T16:10:12;9.70;;;1.77;;
22557;SDS011;11445;53.816;8.902;2023-03-26T16:12:51;11.80;;;1.25;;
22557;SDS011;11445;53.816;8.902;2023-03-26T16:15:25;11.30;;;1.08;;
22557;SDS011;11445;53.816;8.902;2023-03-26T16:21:00;7.95;;;1.52;;
22557;SDS011;11445;53.816;8.902;2023-03-26T16:26:21;2.42;;;1.00;;
22557;SDS011;11445;53.816;8.902;2023-03-26T16:31:55;4.97;;;1.27;;